• Join FlightAware (Why Join?)
  • Login
  • US Flag 
02:41AM EST


 

Airport Tracker/Info


-or-


 

Live Flight TrackerFlight Track Log ✈ N10WN ✈ 21-Mar-2014 ✈ 00R - KADS

Flight Track Log - Related Links

Times and Time Zones

All times are in EDT time to prevent confusion due to time zone crossing. See the N10WN flight status page for this flight to view local times or setup timezone preferences in your user account.

Time Position Orientation Groundspeed Altitude Reporting Facility
EDT Latitude Longitude Course Direction KTS MPH feet Rate Location/Type
04:08PM 30.8261 -95.1158 324° Northwest 102 117 5,600  Level Houston Center
04:09PM 30.8467 -95.1333 324° Northwest 98 113 6,100 480 Climbing Houston Center
04:10PM 30.8708 -95.1514 327° Northwest 98 113 6,700 720 Climbing Houston Center
04:11PM 30.8978 -95.1725 326° Northwest 100 115 7,600 660 Climbing Houston Center
04:12PM 30.9178 -95.1908 322° Northwest 96 110 8,100 240 Climbing Houston Center
04:13PM 30.9500 -95.2133 329° Northwest 133 153 8,100 -60 Level Houston Center
04:14PM 30.9850 -95.2389 328° Northwest 144 166 8,000 -60 Descending Houston Center
04:15PM 31.0181 -95.2664 325° Northwest 147 169 8,000  Level Houston Center
04:16PM 31.0508 -95.2933 325° Northwest 146 168 8,100  Climbing Houston Center
04:17PM 31.0911 -95.3244 327° Northwest 146 168 8,100  Level Houston Center
04:19PM 31.1250 -95.3492 328° Northwest 146 168 8,100 -60 Level Houston Center
04:20PM 31.1583 -95.3753 326° Northwest 146 168 8,000  Descending Houston Center
04:21PM 31.1911 -95.4031 324° Northwest 145 167 8,100  Climbing Houston Center
04:22PM 31.2242 -95.4292 326° Northwest 145 167 8,100  Level Houston Center
04:23PM 31.2578 -95.4572 324° Northwest 145 167 8,100  Level Houston Center
04:24PM 31.2981 -95.4889 326° Northwest 146 168 8,100  Level Houston Center
04:25PM 31.3317 -95.5156 326° Northwest 146 168 8,100  Level Houston Center
04:26PM 31.3650 -95.5428 325° Northwest 146 168 8,100 -60 Level Houston Center
04:27PM 31.3981 -95.5719 323° Northwest 146 168 8,000  Descending Houston Center
04:28PM 31.4314 -95.5997 325° Northwest 146 168 8,100  Climbing Houston Center
04:29PM 31.4653 -95.6261 326° Northwest 146 168 8,100  Level Houston Center
04:30PM 31.5058 -95.6594 325° Northwest 146 168 8,100 -60 Level Houston Center
04:31PM 31.5403 -95.6864 326° Northwest 146 168 8,000 -60 Descending Houston Center
04:32PM 31.5756 -95.7136 327° Northwest 148 170 8,000  Level Houston Center
04:33PM 31.6081 -95.7414 324° Northwest 148 170 8,100  Climbing Houston Center
04:34PM 31.6400 -95.7686 324° Northwest 146 168 8,100  Level Houston Center
04:35PM 31.6733 -95.7961 325° Northwest 146 168 8,100  Level Houston Center
04:36PM 31.7153 -95.8289 326° Northwest 147 169 8,100  Level Houston Center
04:37PM 31.7483 -95.8583 323° Northwest 147 169 8,100  Level Houston Center
04:38PM 31.7831 -95.8861 326° Northwest 148 170 8,100  Level Houston Center
04:39PM 31.8169 -95.9122 327° Northwest 148 170 8,100  Level Houston Center
04:40PM 31.8500 -95.9400 324° Northwest 147 169 8,100  Level Houston Center
04:42PM 31.9003 -95.9792 327° Northwest 148 170 8,100  Level Fort Worth Center
04:43PM 31.9347 -96.0081 325° Northwest 148 170 8,100  Level Fort Worth Center
04:44PM 31.9653 -96.0328 326° Northwest 148 170 8,100  Level Fort Worth Center
04:45PM 32.0056 -96.0658 325° Northwest 148 170 8,100 -60 Level Fort Worth Center
04:46PM 32.0403 -96.0939 326° Northwest 148 170 8,000  Descending Fort Worth Center
04:47PM 32.0731 -96.1225 324° Northwest 148 170 8,100  Climbing Fort Worth Center
04:48PM 32.1078 -96.1508 325° Northwest 148 170 8,100  Level Fort Worth Center
04:49PM 32.1403 -96.1786 324° Northwest 148 170 8,100  Level Fort Worth Center
04:50PM 32.1750 -96.2050 327° Northwest 147 169 8,100 -60 Level Fort Worth Center
04:51PM 32.2178 -96.2356 329° Northwest 148 170 8,000 -60 Descending Fort Worth Center
04:52PM 32.2544 -96.2567 334° Northwest 148 170 8,000  Level Fort Worth Center
04:53PM 32.2947 -96.2819 332° Northwest 148 170 8,000 -60 Level Fort Worth Center
04:54PM 32.3317 -96.3025 335° Northwest 147 169 7,900 -360 Descending Fort Worth Center
04:55PM 32.3747 -96.3292 332° Northwest 162 186 7,300 -480 Descending Fort Worth Center
04:56PM 32.4175 -96.3544 333° Northwest 167 192 7,000 -180 Descending Fort Worth Center
04:57PM 32.4567 -96.3783 333° Northwest 158 182 7,000 -120 Level Fort Worth Center
04:58PM 32.4981 -96.4033 333° Northwest 156 180 6,800 -360 Descending Fort Worth Center
04:59PM 32.5397 -96.4283 333° Northwest 167 192 6,300 -480 Descending Fort Worth Center
05:00PM 32.5861 -96.4556 334° Northwest 171 197 5,900 -480 Descending Fort Worth Center
05:01PM 32.6292 -96.4817 333° Northwest 171 197 5,400 -480 Descending Fort Worth Center
05:02PM 32.6747 -96.5117 331° Northwest 172 198 5,000 -240 Descending Fort Worth Center
05:03PM 32.7133 -96.5339 334° Northwest 171 197 4,900 -240 Descending Fort Worth Center
05:04PM 32.7617 -96.5589 336° Northwest 172 198 4,500 -480 Descending Fort Worth Center
05:05PM 32.8092 -96.5892 332° Northwest 175 201 4,000 -300 Descending Fort Worth Center
05:06PM 32.8486 -96.6175 329° Northwest 167 192 4,000  Level Fort Worth Center
05:08PM 32.9000 -96.6500 332° Northwest 161 185 4,000 -180 Level Dallas / Fort Worth TRACON
05:09PM 32.9333 -96.6833 320° Northwest 168 193 3,700 -540 Descending Dallas / Fort Worth TRACON
05:10PM 32.9667 -96.7167 320° Northwest 175 201 3,000 -420 Descending Dallas / Fort Worth TRACON
05:11PM 33.0000 -96.7500 320° Northwest 147 169 2,900 -360 Descending Dallas / Fort Worth TRACON
05:12PM 33.0333 -96.7833 320° Northwest 147 169 2,300 -720 Descending Dallas / Fort Worth TRACON
05:13PM 33.0167 -96.8333 248° West 146 168 1,500 -600 Descending Dallas / Fort Worth TRACON
05:14PM 32.9833 -96.8333 180° South 82 94 1,200 -300 Descending Dallas / Fort Worth TRACON